sensor_id;sensor_type;location;lat;lon;timestamp;P1;durP1;ratioP1;P2;durP2;ratioP2
19810;SDS011;10065;49.632;8.346;2023-04-03T00:01:06;4.70;;;2.40;;
19810;SDS011;10065;49.632;8.346;2023-04-03T00:03:34;4.57;;;2.40;;
19810;SDS011;10065;49.632;8.346;2023-04-03T00:06:02;5.30;;;2.67;;
19810;SDS011;10065;49.632;8.346;2023-04-03T00:08:33;8.00;;;2.43;;
19810;SDS011;10065;49.632;8.346;2023-04-03T00:11:00;4.33;;;2.23;;
19810;SDS011;10065;49.632;8.346;2023-04-03T00:13:30;5.00;;;2.40;;
19810;SDS011;10065;49.632;8.346;2023-04-03T00:15:59;4.17;;;2.57;;
19810;SDS011;10065;49.632;8.346;2023-04-03T00:18:27;5.13;;;2.77;;
19810;SDS011;10065;49.632;8.346;2023-04-03T00:20:55;6.17;;;2.73;;
19810;SDS011;10065;49.632;8.346;2023-04-03T00:23:22;7.20;;;2.53;;
19810;SDS011;10065;49.632;8.346;2023-04-03T00:25:50;5.60;;;2.47;;
19810;SDS011;10065;49.632;8.346;2023-04-03T00:28:18;7.00;;;2.60;;
19810;SDS011;10065;49.632;8.346;2023-04-03T00:30:49;6.13;;;2.90;;
19810;SDS011;10065;49.632;8.346;2023-04-03T00:33:18;5.93;;;2.67;;
19810;SDS011;10065;49.632;8.346;2023-04-03T00:35:48;5.70;;;2.40;;
19810;SDS011;10065;49.632;8.346;2023-04-03T00:38:16;5.23;;;2.60;;
19810;SDS011;10065;49.632;8.346;2023-04-03T00:40:45;5.83;;;3.00;;
19810;SDS011;10065;49.632;8.346;2023-04-03T00:43:16;4.73;;;2.43;;
19810;SDS011;10065;49.632;8.346;2023-04-03T00:45:46;6.40;;;2.90;;
19810;SDS011;10065;49.632;8.346;2023-04-03T00:48:16;6.00;;;2.80;;
19810;SDS011;10065;49.632;8.346;2023-04-03T00:50:47;4.27;;;2.40;;
19810;SDS011;10065;49.632;8.346;2023-04-03T00:53:18;4.77;;;2.90;;
19810;SDS011;10065;49.632;8.346;2023-04-03T00:55:50;7.00;;;2.80;;
19810;SDS011;10065;49.632;8.346;2023-04-03T00:58:20;4.63;;;2.80;;
19810;SDS011;10065;49.632;8.346;2023-04-03T01:00:56;4.73;;;2.60;;
19810;SDS011;10065;49.632;8.346;2023-04-03T01:03:27;5.93;;;2.47;;
19810;SDS011;10065;49.632;8.346;2023-04-03T01:05:55;6.27;;;2.80;;
19810;SDS011;10065;49.632;8.346;2023-04-03T01:08:22;5.03;;;2.80;;
19810;SDS011;10065;49.632;8.346;2023-04-03T01:10:50;5.20;;;2.47;;
19810;SDS011;10065;49.632;8.346;2023-04-03T01:13:22;7.23;;;2.80;;
19810;SDS011;10065;49.632;8.346;2023-04-03T01:15:52;4.73;;;2.80;;
19810;SDS011;10065;49.632;8.346;2023-04-03T01:18:20;4.57;;;2.37;;
19810;SDS011;10065;49.632;8.346;2023-04-03T01:23:56;5.03;;;2.97;;
19810;SDS011;10065;49.632;8.346;2023-04-03T01:26:32;6.43;;;2.30;;
19810;SDS011;10065;49.632;8.346;2023-04-03T01:29:02;6.20;;;2.47;;
19810;SDS011;10065;49.632;8.346;2023-04-03T01:31:31;6.13;;;2.73;;
19810;SDS011;10065;49.632;8.346;2023-04-03T01:34:11;4.13;;;2.47;;
19810;SDS011;10065;49.632;8.346;2023-04-03T01:36:38;7.27;;;2.73;;
19810;SDS011;10065;49.632;8.346;2023-04-03T01:39:06;6.53;;;2.97;;
19810;SDS011;10065;49.632;8.346;2023-04-03T01:41:34;6.60;;;2.87;;
19810;SDS011;10065;49.632;8.346;2023-04-03T01:44:02;4.60;;;2.50;;
19810;SDS011;10065;49.632;8.346;2023-04-03T01:46:30;6.00;;;2.40;;
19810;SDS011;10065;49.632;8.346;2023-04-03T01:49:00;5.17;;;2.70;;
19810;SDS011;10065;49.632;8.346;2023-04-03T01:51:28;5.97;;;2.67;;
19810;SDS011;10065;49.632;8.346;2023-04-03T01:53:57;5.07;;;2.63;;
19810;SDS011;10065;49.632;8.346;2023-04-03T01:56:24;6.53;;;2.90;;
19810;SDS011;10065;49.632;8.346;2023-04-03T01:58:52;6.30;;;2.53;;
19810;SDS011;10065;49.632;8.346;2023-04-03T02:01:20;5.20;;;2.50;;
19810;SDS011;10065;49.632;8.346;2023-04-03T02:03:48;6.50;;;2.53;;
19810;SDS011;10065;49.632;8.346;2023-04-03T02:06:17;4.87;;;2.87;;
19810;SDS011;10065;49.632;8.346;2023-04-03T02:08:45;5.33;;;2.67;;
19810;SDS011;10065;49.632;8.346;2023-04-03T02:11:15;6.10;;;3.13;;
19810;SDS011;10065;49.632;8.346;2023-04-03T02:13:43;8.70;;;2.67;;
19810;SDS011;10065;49.632;8.346;2023-04-03T02:16:11;4.47;;;1.87;;
19810;SDS011;10065;49.632;8.346;2023-04-03T02:18:39;6.17;;;2.27;;
19810;SDS011;10065;49.632;8.346;2023-04-03T02:21:07;5.97;;;2.70;;
19810;SDS011;10065;49.632;8.346;2023-04-03T02:23:36;4.43;;;2.40;;
19810;SDS011;10065;49.632;8.346;2023-04-03T02:26:05;4.77;;;2.27;;
19810;SDS011;10065;49.632;8.346;2023-04-03T02:28:34;3.83;;;2.20;;
19810;SDS011;10065;49.632;8.346;2023-04-03T02:31:02;6.53;;;2.43;;
19810;SDS011;10065;49.632;8.346;2023-04-03T02:33:32;4.17;;;2.13;;
19810;SDS011;10065;49.632;8.346;2023-04-03T02:36:00;5.67;;;2.10;;
19810;SDS011;10065;49.632;8.346;2023-04-03T02:38:28;3.90;;;2.00;;
19810;SDS011;10065;49.632;8.346;2023-04-03T02:41:00;4.93;;;2.00;;
19810;SDS011;10065;49.632;8.346;2023-04-03T02:43:28;4.47;;;2.20;;
19810;SDS011;10065;49.632;8.346;2023-04-03T02:45:57;4.97;;;2.20;;
19810;SDS011;10065;49.632;8.346;2023-04-03T02:48:25;5.00;;;2.17;;
19810;SDS011;10065;49.632;8.346;2023-04-03T02:50:53;4.60;;;2.10;;
19810;SDS011;10065;49.632;8.346;2023-04-03T02:53:21;6.33;;;2.30;;
19810;SDS011;10065;49.632;8.346;2023-04-03T02:55:49;5.30;;;2.20;;
19810;SDS011;10065;49.632;8.346;2023-04-03T02:58:21;4.57;;;1.87;;
19810;SDS011;10065;49.632;8.346;2023-04-03T03:00:49;6.07;;;2.20;;
19810;SDS011;10065;49.632;8.346;2023-04-03T03:03:17;5.93;;;1.90;;
19810;SDS011;10065;49.632;8.346;2023-04-03T03:05:45;4.33;;;1.60;;
19810;SDS011;10065;49.632;8.346;2023-04-03T03:08:15;4.40;;;2.40;;
19810;SDS011;10065;49.632;8.346;2023-04-03T03:10:46;5.70;;;2.00;;
19810;SDS011;10065;49.632;8.346;2023-04-03T03:13:13;3.97;;;1.70;;
19810;SDS011;10065;49.632;8.346;2023-04-03T03:15:44;7.27;;;3.20;;
19810;SDS011;10065;49.632;8.346;2023-04-03T03:18:11;6.20;;;2.87;;
19810;SDS011;10065;49.632;8.346;2023-04-03T03:20:39;5.50;;;2.33;;
19810;SDS011;10065;49.632;8.346;2023-04-03T03:23:07;5.17;;;2.23;;
19810;SDS011;10065;49.632;8.346;2023-04-03T03:25:37;3.50;;;1.63;;
19810;SDS011;10065;49.632;8.346;2023-04-03T03:28:05;7.80;;;2.20;;
19810;SDS011;10065;49.632;8.346;2023-04-03T03:30:33;6.50;;;2.50;;
19810;SDS011;10065;49.632;8.346;2023-04-03T03:33:02;6.73;;;2.20;;
19810;SDS011;10065;49.632;8.346;2023-04-03T03:35:30;6.90;;;2.77;;
19810;SDS011;10065;49.632;8.346;2023-04-03T03:37:58;6.30;;;2.57;;
19810;SDS011;10065;49.632;8.346;2023-04-03T03:40:26;4.20;;;1.80;;
19810;SDS011;10065;49.632;8.346;2023-04-03T03:42:53;4.87;;;2.10;;
19810;SDS011;10065;49.632;8.346;2023-04-03T03:45:21;4.00;;;1.93;;
19810;SDS011;10065;49.632;8.346;2023-04-03T03:47:49;7.20;;;2.10;;
19810;SDS011;10065;49.632;8.346;2023-04-03T03:50:18;6.90;;;1.80;;
19810;SDS011;10065;49.632;8.346;2023-04-03T03:52:46;5.00;;;2.10;;
19810;SDS011;10065;49.632;8.346;2023-04-03T03:55:14;6.43;;;2.07;;
19810;SDS011;10065;49.632;8.346;2023-04-03T03:57:42;3.63;;;1.90;;
19810;SDS011;10065;49.632;8.346;2023-04-03T04:00:10;6.40;;;2.33;;
19810;SDS011;10065;49.632;8.346;2023-04-03T04:02:38;4.63;;;1.60;;
19810;SDS011;10065;49.632;8.346;2023-04-03T04:05:06;5.83;;;2.40;;
19810;SDS011;10065;49.632;8.346;2023-04-03T04:07:35;5.50;;;2.60;;
19810;SDS011;10065;49.632;8.346;2023-04-03T04:10:03;6.43;;;2.60;;
19810;SDS011;10065;49.632;8.346;2023-04-03T04:12:32;6.07;;;2.60;;
19810;SDS011;10065;49.632;8.346;2023-04-03T04:15:02;4.47;;;2.10;;
19810;SDS011;10065;49.632;8.346;2023-04-03T04:17:30;5.00;;;2.00;;
19810;SDS011;10065;49.632;8.346;2023-04-03T04:19:58;5.20;;;2.20;;
19810;SDS011;10065;49.632;8.346;2023-04-03T04:22:25;7.57;;;2.13;;
19810;SDS011;10065;49.632;8.346;2023-04-03T04:24:54;5.20;;;2.27;;
19810;SDS011;10065;49.632;8.346;2023-04-03T04:27:22;7.50;;;2.50;;
19810;SDS011;10065;49.632;8.346;2023-04-03T04:30:04;7.70;;;2.90;;
19810;SDS011;10065;49.632;8.346;2023-04-03T04:32:33;8.27;;;3.43;;
19810;SDS011;10065;49.632;8.346;2023-04-03T04:35:01;3.63;;;2.10;;
19810;SDS011;10065;49.632;8.346;2023-04-03T04:37:29;8.23;;;2.93;;
19810;SDS011;10065;49.632;8.346;2023-04-03T04:39:58;5.40;;;2.90;;
19810;SDS011;10065;49.632;8.346;2023-04-03T04:42:26;5.63;;;2.67;;
19810;SDS011;10065;49.632;8.346;2023-04-03T04:44:53;7.17;;;3.20;;
19810;SDS011;10065;49.632;8.346;2023-04-03T04:47:21;6.73;;;3.07;;
19810;SDS011;10065;49.632;8.346;2023-04-03T04:49:49;8.00;;;3.17;;
19810;SDS011;10065;49.632;8.346;2023-04-03T04:52:17;6.23;;;2.90;;
19810;SDS011;10065;49.632;8.346;2023-04-03T04:54:44;7.57;;;3.00;;
19810;SDS011;10065;49.632;8.346;2023-04-03T04:57:14;5.53;;;2.90;;
19810;SDS011;10065;49.632;8.346;2023-04-03T04:59:42;10.37;;;3.47;;
19810;SDS011;10065;49.632;8.346;2023-04-03T05:02:10;8.80;;;3.17;;
19810;SDS011;10065;49.632;8.346;2023-04-03T05:04:38;6.60;;;3.30;;
19810;SDS011;10065;49.632;8.346;2023-04-03T05:07:06;5.10;;;3.07;;
19810;SDS011;10065;49.632;8.346;2023-04-03T05:09:33;8.80;;;3.70;;
19810;SDS011;10065;49.632;8.346;2023-04-03T05:12:01;7.73;;;3.30;;
19810;SDS011;10065;49.632;8.346;2023-04-03T05:14:30;14.63;;;3.53;;
19810;SDS011;10065;49.632;8.346;2023-04-03T05:16:58;7.00;;;3.10;;
19810;SDS011;10065;49.632;8.346;2023-04-03T05:19:26;10.90;;;3.43;;
19810;SDS011;10065;49.632;8.346;2023-04-03T05:21:54;11.33;;;3.63;;
19810;SDS011;10065;49.632;8.346;2023-04-03T05:24:22;8.33;;;3.87;;
19810;SDS011;10065;49.632;8.346;2023-04-03T05:26:49;9.40;;;3.93;;
19810;SDS011;10065;49.632;8.346;2023-04-03T05:29:17;6.97;;;4.00;;
19810;SDS011;10065;49.632;8.346;2023-04-03T05:31:46;10.43;;;3.70;;
19810;SDS011;10065;49.632;8.346;2023-04-03T05:34:33;9.83;;;3.40;;
19810;SDS011;10065;49.632;8.346;2023-04-03T05:37:01;8.77;;;3.83;;
19810;SDS011;10065;49.632;8.346;2023-04-03T05:39:31;9.03;;;4.00;;
19810;SDS011;10065;49.632;8.346;2023-04-03T05:41:59;11.60;;;4.00;;
19810;SDS011;10065;49.632;8.346;2023-04-03T05:44:28;9.77;;;3.30;;
19810;SDS011;10065;49.632;8.346;2023-04-03T05:46:57;5.87;;;2.93;;
19810;SDS011;10065;49.632;8.346;2023-04-03T05:49:25;7.10;;;3.23;;
19810;SDS011;10065;49.632;8.346;2023-04-03T05:51:53;7.93;;;3.30;;
19810;SDS011;10065;49.632;8.346;2023-04-03T05:54:22;7.33;;;3.07;;
19810;SDS011;10065;49.632;8.346;2023-04-03T05:56:52;7.47;;;3.03;;
19810;SDS011;10065;49.632;8.346;2023-04-03T05:59:20;7.37;;;3.00;;
19810;SDS011;10065;49.632;8.346;2023-04-03T06:01:48;5.63;;;3.10;;
19810;SDS011;10065;49.632;8.346;2023-04-03T06:04:18;6.83;;;2.70;;
19810;SDS011;10065;49.632;8.346;2023-04-03T06:06:48;8.33;;;3.60;;
19810;SDS011;10065;49.632;8.346;2023-04-03T06:09:18;8.97;;;3.63;;
19810;SDS011;10065;49.632;8.346;2023-04-03T06:11:47;12.20;;;3.70;;
19810;SDS011;10065;49.632;8.346;2023-04-03T06:14:15;7.07;;;2.80;;
19810;SDS011;10065;49.632;8.346;2023-04-03T06:16:42;11.37;;;2.63;;
19810;SDS011;10065;49.632;8.346;2023-04-03T06:19:11;5.37;;;2.73;;
19810;SDS011;10065;49.632;8.346;2023-04-03T06:21:40;6.83;;;2.97;;
19810;SDS011;10065;49.632;8.346;2023-04-03T06:24:09;10.17;;;3.03;;
19810;SDS011;10065;49.632;8.346;2023-04-03T06:26:39;6.67;;;2.73;;
19810;SDS011;10065;49.632;8.346;2023-04-03T06:29:07;8.90;;;3.20;;
19810;SDS011;10065;49.632;8.346;2023-04-03T06:31:35;6.73;;;2.37;;
19810;SDS011;10065;49.632;8.346;2023-04-03T06:34:03;7.23;;;2.00;;
19810;SDS011;10065;49.632;8.346;2023-04-03T06:36:34;8.30;;;2.23;;
19810;SDS011;10065;49.632;8.346;2023-04-03T06:39:03;11.57;;;2.00;;
19810;SDS011;10065;49.632;8.346;2023-04-03T06:41:33;4.57;;;1.67;;
19810;SDS011;10065;49.632;8.346;2023-04-03T06:44:02;8.27;;;1.93;;
19810;SDS011;10065;49.632;8.346;2023-04-03T06:46:30;6.87;;;2.13;;
19810;SDS011;10065;49.632;8.346;2023-04-03T06:48:58;5.80;;;1.90;;
19810;SDS011;10065;49.632;8.346;2023-04-03T06:51:26;4.63;;;1.47;;
19810;SDS011;10065;49.632;8.346;2023-04-03T06:53:56;12.43;;;2.00;;
19810;SDS011;10065;49.632;8.346;2023-04-03T06:56:26;4.80;;;1.80;;
19810;SDS011;10065;49.632;8.346;2023-04-03T06:58:55;9.43;;;2.23;;
19810;SDS011;10065;49.632;8.346;2023-04-03T07:01:24;8.77;;;2.50;;
19810;SDS011;10065;49.632;8.346;2023-04-03T07:03:54;9.70;;;3.63;;
19810;SDS011;10065;49.632;8.346;2023-04-03T07:06:22;7.00;;;2.00;;
19810;SDS011;10065;49.632;8.346;2023-04-03T07:08:53;6.20;;;2.17;;
19810;SDS011;10065;49.632;8.346;2023-04-03T07:11:22;4.53;;;1.77;;
19810;SDS011;10065;49.632;8.346;2023-04-03T07:13:51;6.33;;;2.07;;
19810;SDS011;10065;49.632;8.346;2023-04-03T07:16:19;4.50;;;1.53;;
19810;SDS011;10065;49.632;8.346;2023-04-03T07:18:47;8.20;;;1.80;;
19810;SDS011;10065;49.632;8.346;2023-04-03T07:21:15;5.50;;;1.80;;
19810;SDS011;10065;49.632;8.346;2023-04-03T07:23:43;7.67;;;1.73;;
19810;SDS011;10065;49.632;8.346;2023-04-03T07:26:11;6.07;;;2.30;;
19810;SDS011;10065;49.632;8.346;2023-04-03T07:28:39;6.20;;;2.13;;
19810;SDS011;10065;49.632;8.346;2023-04-03T07:31:10;7.33;;;1.97;;
19810;SDS011;10065;49.632;8.346;2023-04-03T07:33:40;7.00;;;2.20;;
19810;SDS011;10065;49.632;8.346;2023-04-03T07:36:08;6.07;;;2.23;;
19810;SDS011;10065;49.632;8.346;2023-04-03T07:38:37;6.70;;;2.10;;
19810;SDS011;10065;49.632;8.346;2023-04-03T07:41:05;6.80;;;1.70;;
19810;SDS011;10065;49.632;8.346;2023-04-03T07:43:33;5.37;;;2.30;;
19810;SDS011;10065;49.632;8.346;2023-04-03T07:46:01;5.10;;;1.53;;
19810;SDS011;10065;49.632;8.346;2023-04-03T07:48:34;8.23;;;2.43;;
19810;SDS011;10065;49.632;8.346;2023-04-03T07:51:02;7.73;;;2.10;;
19810;SDS011;10065;49.632;8.346;2023-04-03T07:53:31;4.53;;;1.90;;
19810;SDS011;10065;49.632;8.346;2023-04-03T07:56:00;6.37;;;1.67;;
19810;SDS011;10065;49.632;8.346;2023-04-03T07:58:29;6.87;;;2.10;;
19810;SDS011;10065;49.632;8.346;2023-04-03T08:00:57;8.93;;;2.23;;
19810;SDS011;10065;49.632;8.346;2023-04-03T08:03:25;9.93;;;3.37;;
19810;SDS011;10065;49.632;8.346;2023-04-03T08:05:54;3.60;;;1.73;;
19810;SDS011;10065;49.632;8.346;2023-04-03T08:08:22;6.37;;;2.00;;
19810;SDS011;10065;49.632;8.346;2023-04-03T08:10:53;5.27;;;1.47;;
19810;SDS011;10065;49.632;8.346;2023-04-03T08:13:23;5.13;;;1.77;;
19810;SDS011;10065;49.632;8.346;2023-04-03T08:15:50;6.80;;;1.73;;
19810;SDS011;10065;49.632;8.346;2023-04-03T08:18:19;7.70;;;1.80;;
19810;SDS011;10065;49.632;8.346;2023-04-03T08:20:50;5.03;;;1.90;;
19810;SDS011;10065;49.632;8.346;2023-04-03T08:23:19;7.03;;;1.63;;
19810;SDS011;10065;49.632;8.346;2023-04-03T08:25:47;3.63;;;1.80;;
19810;SDS011;10065;49.632;8.346;2023-04-03T08:28:14;5.53;;;1.90;;
19810;SDS011;10065;49.632;8.346;2023-04-03T08:30:42;3.40;;;1.70;;
19810;SDS011;10065;49.632;8.346;2023-04-03T08:33:10;5.70;;;1.93;;
19810;SDS011;10065;49.632;8.346;2023-04-03T08:35:38;4.37;;;1.77;;
19810;SDS011;10065;49.632;8.346;2023-04-03T08:38:07;4.43;;;1.77;;
19810;SDS011;10065;49.632;8.346;2023-04-03T08:40:36;4.20;;;1.17;;
19810;SDS011;10065;49.632;8.346;2023-04-03T08:43:10;5.93;;;2.50;;
19810;SDS011;10065;49.632;8.346;2023-04-03T08:45:57;4.83;;;1.40;;
19810;SDS011;10065;49.632;8.346;2023-04-03T08:48:33;4.40;;;1.80;;
19810;SDS011;10065;49.632;8.346;2023-04-03T08:51:04;6.83;;;1.77;;
19810;SDS011;10065;49.632;8.346;2023-04-03T08:53:42;7.20;;;1.90;;
19810;SDS011;10065;49.632;8.346;2023-04-03T08:56:18;5.47;;;1.60;;
19810;SDS011;10065;49.632;8.346;2023-04-03T08:58:47;5.63;;;1.40;;
19810;SDS011;10065;49.632;8.346;2023-04-03T09:01:21;5.83;;;2.03;;
19810;SDS011;10065;49.632;8.346;2023-04-03T09:03:52;5.40;;;1.50;;
19810;SDS011;10065;49.632;8.346;2023-04-03T09:06:20;5.90;;;1.73;;
19810;SDS011;10065;49.632;8.346;2023-04-03T09:08:51;3.03;;;1.40;;
19810;SDS011;10065;49.632;8.346;2023-04-03T09:11:36;5.60;;;1.83;;
19810;SDS011;10065;49.632;8.346;2023-04-03T09:14:14;6.60;;;1.40;;
19810;SDS011;10065;49.632;8.346;2023-04-03T09:16:52;4.53;;;1.40;;
19810;SDS011;10065;49.632;8.346;2023-04-03T09:19:28;6.80;;;2.43;;
19810;SDS011;10065;49.632;8.346;2023-04-03T09:22:17;4.57;;;1.60;;
19810;SDS011;10065;49.632;8.346;2023-04-03T09:24:49;5.63;;;1.77;;
19810;SDS011;10065;49.632;8.346;2023-04-03T09:27:26;4.53;;;1.40;;
19810;SDS011;10065;49.632;8.346;2023-04-03T09:29:55;4.20;;;1.40;;
19810;SDS011;10065;49.632;8.346;2023-04-03T09:32:26;85.23;;;8.13;;
19810;SDS011;10065;49.632;8.346;2023-04-03T09:34:57;6.77;;;1.57;;
19810;SDS011;10065;49.632;8.346;2023-04-03T09:37:36;7.27;;;2.10;;
19810;SDS011;10065;49.632;8.346;2023-04-03T09:40:12;4.00;;;1.37;;
19810;SDS011;10065;49.632;8.346;2023-04-03T09:42:58;4.57;;;1.60;;
19810;SDS011;10065;49.632;8.346;2023-04-03T09:45:28;3.20;;;1.37;;
19810;SDS011;10065;49.632;8.346;2023-04-03T09:48:05;2.03;;;1.00;;
19810;SDS011;10065;49.632;8.346;2023-04-03T09:50:52;4.50;;;1.17;;
19810;SDS011;10065;49.632;8.346;2023-04-03T09:53:32;5.93;;;1.90;;
19810;SDS011;10065;49.632;8.346;2023-04-03T09:56:03;5.00;;;1.33;;
19810;SDS011;10065;49.632;8.346;2023-04-03T09:58:36;3.87;;;1.50;;
19810;SDS011;10065;49.632;8.346;2023-04-03T10:01:21;2.67;;;0.73;;
19810;SDS011;10065;49.632;8.346;2023-04-03T10:04:03;5.77;;;1.20;;
19810;SDS011;10065;49.632;8.346;2023-04-03T10:06:34;3.00;;;1.20;;
19810;SDS011;10065;49.632;8.346;2023-04-03T10:09:04;3.10;;;1.03;;
19810;SDS011;10065;49.632;8.346;2023-04-03T10:11:33;6.53;;;1.17;;
19810;SDS011;10065;49.632;8.346;2023-04-03T10:14:02;4.80;;;2.70;;
19810;SDS011;10065;49.632;8.346;2023-04-03T10:16:35;3.43;;;1.33;;
19810;SDS011;10065;49.632;8.346;2023-04-03T10:19:20;3.17;;;1.13;;
19810;SDS011;10065;49.632;8.346;2023-04-03T10:22:00;6.67;;;1.40;;
19810;SDS011;10065;49.632;8.346;2023-04-03T10:24:35;2.73;;;1.33;;
19810;SDS011;10065;49.632;8.346;2023-04-03T10:27:08;3.30;;;1.20;;
19810;SDS011;10065;49.632;8.346;2023-04-03T10:29:43;4.83;;;1.07;;
19810;SDS011;10065;49.632;8.346;2023-04-03T10:32:24;5.37;;;1.43;;
19810;SDS011;10065;49.632;8.346;2023-04-03T10:35:01;5.07;;;1.20;;
19810;SDS011;10065;49.632;8.346;2023-04-03T10:37:41;4.77;;;1.53;;
19810;SDS011;10065;49.632;8.346;2023-04-03T10:40:23;5.83;;;1.20;;
19810;SDS011;10065;49.632;8.346;2023-04-03T10:43:00;4.97;;;1.20;;
19810;SDS011;10065;49.632;8.346;2023-04-03T10:45:40;3.20;;;1.07;;
19810;SDS011;10065;49.632;8.346;2023-04-03T10:48:17;3.90;;;1.10;;
19810;SDS011;10065;49.632;8.346;2023-04-03T10:51:00;3.17;;;1.23;;
19810;SDS011;10065;49.632;8.346;2023-04-03T10:53:35;4.03;;;1.40;;
19810;SDS011;10065;49.632;8.346;2023-04-03T10:56:13;3.13;;;1.10;;
19810;SDS011;10065;49.632;8.346;2023-04-03T10:58:49;5.60;;;1.20;;
19810;SDS011;10065;49.632;8.346;2023-04-03T11:01:26;2.97;;;1.20;;
19810;SDS011;10065;49.632;8.346;2023-04-03T11:04:00;4.07;;;1.30;;
19810;SDS011;10065;49.632;8.346;2023-04-03T11:06:32;4.97;;;1.20;;
19810;SDS011;10065;49.632;8.346;2023-04-03T11:09:07;3.15;;;1.23;;
19810;SDS011;10065;49.632;8.346;2023-04-03T11:11:44;2.63;;;1.30;;
19810;SDS011;10065;49.632;8.346;2023-04-03T11:14:15;3.05;;;1.25;;
19810;SDS011;10065;49.632;8.346;2023-04-03T11:16:53;3.38;;;1.30;;
19810;SDS011;10065;49.632;8.346;2023-04-03T11:19:32;3.00;;;1.33;;
19810;SDS011;10065;49.632;8.346;2023-04-03T11:22:04;2.45;;;1.10;;
19810;SDS011;10065;49.632;8.346;2023-04-03T11:24:39;2.95;;;1.30;;
19810;SDS011;10065;49.632;8.346;2023-04-03T11:27:11;4.77;;;1.50;;
19810;SDS011;10065;49.632;8.346;2023-04-03T11:29:44;3.78;;;1.50;;
19810;SDS011;10065;49.632;8.346;2023-04-03T11:32:23;4.78;;;1.30;;
19810;SDS011;10065;49.632;8.346;2023-04-03T11:35:09;3.90;;;1.25;;
19810;SDS011;10065;49.632;8.346;2023-04-03T11:37:38;3.53;;;1.50;;
19810;SDS011;10065;49.632;8.346;2023-04-03T11:40:19;3.08;;;1.27;;
19810;SDS011;10065;49.632;8.346;2023-04-03T11:42:52;3.78;;;1.13;;
19810;SDS011;10065;49.632;8.346;2023-04-03T11:45:24;2.78;;;1.13;;
19810;SDS011;10065;49.632;8.346;2023-04-03T11:47:59;2.50;;;1.17;;
19810;SDS011;10065;49.632;8.346;2023-04-03T11:50:46;2.65;;;0.90;;
19810;SDS011;10065;49.632;8.346;2023-04-03T11:53:28;2.40;;;1.00;;
19810;SDS011;10065;49.632;8.346;2023-04-03T11:56:02;2.92;;;1.20;;
19810;SDS011;10065;49.632;8.346;2023-04-03T11:58:32;2.37;;;1.03;;
19810;SDS011;10065;49.632;8.346;2023-04-03T12:01:01;4.30;;;1.50;;
19810;SDS011;10065;49.632;8.346;2023-04-03T12:03:35;3.60;;;1.43;;
19810;SDS011;10065;49.632;8.346;2023-04-03T12:12:58;4.07;;;1.37;;
19810;SDS011;10065;49.632;8.346;2023-04-03T12:24:48;3.73;;;1.00;;
19810;SDS011;10065;49.632;8.346;2023-04-03T12:32:51;3.57;;;1.60;;
19810;SDS011;10065;49.632;8.346;2023-04-03T12:35:43;4.50;;;1.90;;
19810;SDS011;10065;49.632;8.346;2023-04-03T12:41:18;4.73;;;1.40;;
19810;SDS011;10065;49.632;8.346;2023-04-03T12:44:11;3.00;;;1.13;;
19810;SDS011;10065;49.632;8.346;2023-04-03T12:46:54;5.43;;;1.43;;
19810;SDS011;10065;49.632;8.346;2023-04-03T12:49:31;4.10;;;1.20;;
19810;SDS011;10065;49.632;8.346;2023-04-03T12:52:06;4.30;;;1.70;;
19810;SDS011;10065;49.632;8.346;2023-04-03T12:54:46;2.20;;;1.03;;
19810;SDS011;10065;49.632;8.346;2023-04-03T12:57:16;2.23;;;1.37;;
19810;SDS011;10065;49.632;8.346;2023-04-03T12:59:49;4.70;;;1.23;;
19810;SDS011;10065;49.632;8.346;2023-04-03T13:02:20;5.37;;;1.37;;
19810;SDS011;10065;49.632;8.346;2023-04-03T13:04:51;4.47;;;1.30;;
19810;SDS011;10065;49.632;8.346;2023-04-03T13:07:25;3.40;;;1.20;;
19810;SDS011;10065;49.632;8.346;2023-04-03T13:09:59;4.60;;;1.10;;
19810;SDS011;10065;49.632;8.346;2023-04-03T13:12:29;3.20;;;1.37;;
19810;SDS011;10065;49.632;8.346;2023-04-03T13:14:58;2.43;;;1.17;;
19810;SDS011;10065;49.632;8.346;2023-04-03T13:17:27;3.67;;;1.27;;
19810;SDS011;10065;49.632;8.346;2023-04-03T13:19:56;3.03;;;1.40;;
19810;SDS011;10065;49.632;8.346;2023-04-03T13:22:47;3.13;;;1.10;;
19810;SDS011;10065;49.632;8.346;2023-04-03T13:25:18;1.77;;;0.90;;
19810;SDS011;10065;49.632;8.346;2023-04-03T13:27:48;3.13;;;1.10;;
19810;SDS011;10065;49.632;8.346;2023-04-03T13:30:27;3.90;;;1.43;;
19810;SDS011;10065;49.632;8.346;2023-04-03T13:32:57;3.03;;;1.10;;
19810;SDS011;10065;49.632;8.346;2023-04-03T13:35:31;4.37;;;1.60;;
19810;SDS011;10065;49.632;8.346;2023-04-03T13:38:04;3.67;;;1.20;;
19810;SDS011;10065;49.632;8.346;2023-04-03T13:40:50;3.37;;;1.23;;
19810;SDS011;10065;49.632;8.346;2023-04-03T13:43:20;4.33;;;1.40;;
19810;SDS011;10065;49.632;8.346;2023-04-03T13:45:55;4.23;;;1.40;;
19810;SDS011;10065;49.632;8.346;2023-04-03T13:48:25;3.23;;;1.23;;
19810;SDS011;10065;49.632;8.346;2023-04-03T13:50:55;6.13;;;1.63;;
19810;SDS011;10065;49.632;8.346;2023-04-03T13:53:27;6.37;;;1.30;;
19810;SDS011;10065;49.632;8.346;2023-04-03T13:56:00;3.47;;;1.50;;
19810;SDS011;10065;49.632;8.346;2023-04-03T13:58:35;2.97;;;1.20;;
19810;SDS011;10065;49.632;8.346;2023-04-03T14:01:09;2.23;;;1.10;;
19810;SDS011;10065;49.632;8.346;2023-04-03T14:03:52;3.97;;;1.27;;
19810;SDS011;10065;49.632;8.346;2023-04-03T14:06:22;2.03;;;1.07;;
19810;SDS011;10065;49.632;8.346;2023-04-03T14:08:52;5.00;;;1.43;;
19810;SDS011;10065;49.632;8.346;2023-04-03T14:11:22;4.00;;;1.40;;
19810;SDS011;10065;49.632;8.346;2023-04-03T14:13:53;3.10;;;1.30;;
19810;SDS011;10065;49.632;8.346;2023-04-03T14:16:25;3.00;;;1.20;;
19810;SDS011;10065;49.632;8.346;2023-04-03T14:18:55;5.17;;;1.37;;
19810;SDS011;10065;49.632;8.346;2023-04-03T14:21:23;4.50;;;1.23;;
19810;SDS011;10065;49.632;8.346;2023-04-03T14:23:53;2.07;;;1.20;;
19810;SDS011;10065;49.632;8.346;2023-04-03T14:26:22;4.60;;;1.60;;
19810;SDS011;10065;49.632;8.346;2023-04-03T14:28:53;2.23;;;1.17;;
19810;SDS011;10065;49.632;8.346;2023-04-03T14:31:22;4.07;;;1.87;;
19810;SDS011;10065;49.632;8.346;2023-04-03T14:33:50;3.50;;;1.63;;
19810;SDS011;10065;49.632;8.346;2023-04-03T14:36:19;3.43;;;1.50;;
19810;SDS011;10065;49.632;8.346;2023-04-03T14:38:49;2.87;;;1.40;;
19810;SDS011;10065;49.632;8.346;2023-04-03T14:41:19;3.37;;;1.50;;
19810;SDS011;10065;49.632;8.346;2023-04-03T14:43:49;6.33;;;1.97;;
19810;SDS011;10065;49.632;8.346;2023-04-03T14:46:18;5.13;;;1.63;;
19810;SDS011;10065;49.632;8.346;2023-04-03T14:48:52;2.20;;;1.23;;
19810;SDS011;10065;49.632;8.346;2023-04-03T14:51:20;4.23;;;1.23;;
19810;SDS011;10065;49.632;8.346;2023-04-03T14:53:48;5.80;;;1.47;;
19810;SDS011;10065;49.632;8.346;2023-04-03T14:56:17;6.30;;;1.30;;
19810;SDS011;10065;49.632;8.346;2023-04-03T14:58:49;2.87;;;1.27;;
19810;SDS011;10065;49.632;8.346;2023-04-03T15:01:21;3.03;;;1.53;;
19810;SDS011;10065;49.632;8.346;2023-04-03T15:03:49;3.37;;;1.60;;
19810;SDS011;10065;49.632;8.346;2023-04-03T15:06:17;4.13;;;1.10;;
19810;SDS011;10065;49.632;8.346;2023-04-03T15:08:45;4.13;;;1.30;;
19810;SDS011;10065;49.632;8.346;2023-04-03T15:11:14;2.17;;;0.90;;
19810;SDS011;10065;49.632;8.346;2023-04-03T15:13:43;2.63;;;1.13;;
19810;SDS011;10065;49.632;8.346;2023-04-03T15:16:14;4.50;;;1.30;;
19810;SDS011;10065;49.632;8.346;2023-04-03T15:18:43;2.60;;;1.20;;
19810;SDS011;10065;49.632;8.346;2023-04-03T15:21:12;3.17;;;1.47;;
19810;SDS011;10065;49.632;8.346;2023-04-03T15:23:41;3.03;;;1.20;;
19810;SDS011;10065;49.632;8.346;2023-04-03T15:26:09;4.40;;;1.47;;
19810;SDS011;10065;49.632;8.346;2023-04-03T15:28:37;3.03;;;1.27;;
19810;SDS011;10065;49.632;8.346;2023-04-03T15:31:08;4.07;;;1.27;;
19810;SDS011;10065;49.632;8.346;2023-04-03T15:33:36;2.90;;;1.10;;
19810;SDS011;10065;49.632;8.346;2023-04-03T15:36:04;3.03;;;1.30;;
19810;SDS011;10065;49.632;8.346;2023-04-03T15:38:52;6.23;;;1.40;;